Time;durP1;ratioP1;P1;durP2;ratioP2;P2;SDS_P1;SDS_P2;PMS_P1;PMS_P2;Temp;Humidity;BMP_temperature;BMP_pressure;BME280_temperature;BME280_humidity;BME280_pressure;Samples;Min_cycle;Max_cycle;Signal;HPM_P1;HPM_P2
2022/11/02 00:01:51;;;;;;;19.40;4.47;;;;;;;16.84;70.63;99515.97;5090325;28;20444;-46
2022/11/02 00:04:17;;;;;;;15.30;3.90;;;;;;;16.93;70.28;99526.06;5091515;28;20027;-46
2022/11/02 00:06:43;;;;;;;13.45;4.05;;;;;;;17.06;70.35;99522.44;5090482;28;20032;-46
2022/11/02 00:09:09;;;;;;;12.95;3.42;;;;;;;17.36;70.21;99527.81;5091482;28;20052;-46
2022/11/02 00:11:36;;;;;;;9.20;4.13;;;;;;;17.70;68.95;99527.38;5091465;28;20030;-47
2022/11/02 00:14:02;;;;;;;13.77;5.07;;;;;;;17.85;67.83;99521.66;5091511;28;20012;-46
2022/11/02 00:16:29;;;;;;;11.65;3.78;;;;;;;17.85;67.57;99533.09;5091667;28;20081;-46
2022/11/02 00:18:58;;;;;;;16.23;6.78;;;;;;;17.76;66.86;99529.09;5094966;28;20121;-46
2022/11/02 00:21:26;;;;;;;13.13;4.30;;;;;;;17.60;67.01;99537.72;5093886;28;20167;-46
2022/11/02 00:23:53;;;;;;;10.80;4.75;;;;;;;17.37;66.69;99532.09;5077481;28;20028;-46
2022/11/02 00:26:19;;;;;;;6.75;4.13;;;;;;;17.08;67.34;99536.31;5095103;28;20423;-46
2022/11/02 00:28:45;;;;;;;10.00;4.00;;;;;;;16.92;68.29;99532.44;5095104;28;20126;-46
2022/11/02 00:31:11;;;;;;;10.63;4.25;;;;;;;17.12;69.15;99536.66;5093671;28;20031;-46
2022/11/02 00:33:36;;;;;;;16.73;4.78;;;;;;;17.27;68.59;99521.19;5094092;28;20505;-46
2022/11/02 00:36:02;;;;;;;14.05;4.82;;;;;;;17.34;68.42;99519.28;5094928;28;20028;-46
2022/11/02 00:38:28;;;;;;;9.98;4.40;;;;;;;17.23;67.80;99514.72;5094807;28;20474;-46
2022/11/02 00:40:53;;;;;;;18.27;4.85;;;;;;;16.98;68.04;99520.09;5094887;28;20555;-46
2022/11/02 00:43:19;;;;;;;17.83;4.75;;;;;;;16.98;69.33;99522.75;5094823;28;20095;-46
2022/11/02 00:45:45;;;;;;;7.80;4.15;;;;;;;16.89;69.04;99530.19;5093478;28;20028;-46
2022/11/02 00:48:10;;;;;;;14.23;4.70;;;;;;;16.68;69.40;99528.78;5093393;28;20462;-46
2022/11/02 00:50:36;;;;;;;16.38;4.70;;;;;;;16.64;70.74;99526.75;5093340;28;20020;-46
2022/11/02 00:53:02;;;;;;;14.68;4.78;;;;;;;16.67;70.89;99523.69;5094567;28;20043;-46
2022/11/02 00:55:27;;;;;;;13.85;4.70;;;;;;;16.94;70.78;99526.88;5094636;28;20044;-46
2022/11/02 00:57:53;;;;;;;13.48;4.43;;;;;;;17.01;70.26;99526.81;5094450;28;20095;-46
2022/11/02 01:00:19;;;;;;;13.05;4.13;;;;;;;17.01;69.43;99522.31;5094474;28;20389;-46
2022/11/02 01:02:44;;;;;;;11.48;4.82;;;;;;;16.91;69.56;99532.63;5094484;28;20059;-46
2022/11/02 01:05:11;;;;;;;11.25;4.63;;;;;;;16.72;69.59;99531.75;5094367;28;20058;-46
2022/11/02 01:07:38;;;;;;;14.45;5.68;;;;;;;16.49;69.72;99540.34;5093060;28;20042;-46
2022/11/02 01:10:06;;;;;;;9.77;5.20;;;;;;;16.25;70.42;99540.16;5094303;28;20558;-46
2022/11/02 01:12:31;;;;;;;17.27;4.88;;;;;;;16.13;71.53;99533.94;5092972;28;20024;-46
2022/11/02 01:14:57;;;;;;;15.43;4.82;;;;;;;16.08;71.65;99541.72;5094224;28;20028;-46
2022/11/02 01:17:22;;;;;;;23.90;5.20;;;;;;;15.93;71.79;99540.16;5094066;28;20121;-46
2022/11/02 01:19:49;;;;;;;14.73;4.55;;;;;;;15.86;72.39;99535.97;5092752;28;20028;-46
2022/11/02 01:22:15;;;;;;;9.73;4.65;;;;;;;15.93;72.72;99534.06;5092988;28;20513;-46
2022/11/02 01:24:41;;;;;;;13.85;4.68;;;;;;;16.10;72.78;99532.53;5093061;28;20028;-46
2022/11/02 01:27:06;;;;;;;16.15;5.68;;;;;;;16.21;72.96;99527.56;5093773;28;20109;-46
2022/11/02 01:29:32;;;;;;;18.17;4.90;;;;;;;16.34;72.66;99524.81;5092670;28;20432;-46
2022/11/02 01:31:58;;;;;;;10.90;4.00;;;;;;;16.50;72.71;99528.72;5092914;28;20050;-46
2022/11/02 01:34:23;;;;;;;15.07;4.82;;;;;;;16.68;72.34;99533.25;5092437;28;20077;-46
2022/11/02 01:36:49;;;;;;;11.63;3.67;;;;;;;16.79;71.19;99524.56;5092717;28;20020;-46
2022/11/02 01:39:15;;;;;;;11.82;4.57;;;;;;;16.73;70.43;99528.09;5092669;28;20020;-46
2022/11/02 01:41:41;;;;;;;20.88;5.30;;;;;;;16.43;70.10;99530.63;5093704;28;20025;-47
2022/11/02 01:44:25;;;;;;;11.52;3.95;;;;;;;15.99;70.42;99541.16;5092469;28;20379;-46
2022/11/02 01:46:54;;;;;;;16.90;4.43;;;;;;;15.63;71.04;99537.28;5093635;28;20020;-46
2022/11/02 01:49:21;;;;;;;13.25;3.30;;;;;;;15.36;71.70;99539.25;5092156;28;20035;-46
2022/11/02 01:51:50;;;;;;;9.07;3.17;;;;;;;15.13;72.57;99539.72;5093519;28;20027;-46
2022/11/02 01:54:21;;;;;;;9.43;3.47;;;;;;;15.04;73.20;99538.34;5093459;28;20032;-46
2022/11/02 01:56:53;;;;;;;12.15;3.50;;;;;;;15.12;74.16;99538.94;5092146;28;20099;-46
2022/11/02 01:59:22;;;;;;;18.98;4.47;;;;;;;15.47;74.47;99543.06;5093327;28;20031;-46
2022/11/02 02:01:48;;;;;;;15.70;4.45;;;;;;;15.89;73.76;99532.88;5093590;28;20024;-46
2022/11/02 02:04:14;;;;;;;10.75;3.67;;;;;;;16.15;73.52;99532.69;5091939;28;20043;-46
2022/11/02 02:06:41;;;;;;;10.40;4.15;;;;;;;16.05;71.50;99529.69;5093257;28;20035;-46
2022/11/02 02:09:08;;;;;;;14.55;5.28;;;;;;;15.77;71.34;99528.28;5091927;28;20024;-46
2022/11/02 02:11:36;;;;;;;13.10;5.88;;;;;;;15.46;72.03;99526.38;5093100;28;20127;-46
2022/11/02 02:14:10;;;;;;;10.88;5.00;;;;;;;15.13;73.10;99532.63;5092030;28;20032;-46
2022/11/02 02:17:01;;;;;;;8.18;6.00;;;;;;;14.85;73.83;99524.16;5092761;28;20024;-47
2022/11/02 02:19:49;;;;;;;14.65;7.05;;;;;;;14.57;75.31;99523.41;5091611;28;20432;-46
2022/11/02 02:22:48;;;;;;;24.38;11.77;;;;;;;14.57;76.26;99520.78;5092951;28;20059;-46
2022/11/02 02:25:35;;;;;;;11.93;8.90;;;;;;;14.76;76.14;99521.75;5092859;28;20023;-46
2022/11/02 02:28:20;;;;;;;13.30;8.70;;;;;;;14.88;75.55;99514.00;5092884;28;20027;-46
2022/11/02 02:30:55;;;;;;;9.45;7.32;;;;;;;14.85;74.87;99514.41;5091794;28;20032;-46
2022/11/02 02:33:42;;;;;;;21.67;16.03;;;;;;;14.66;75.10;99518.72;5091526;28;20056;-46
2022/11/02 02:36:28;;;;;;;25.95;22.13;;;;;;;14.71;76.17;99521.56;5092707;28;20398;-46
2022/11/02 02:39:05;;;;;;;33.08;25.52;;;;;;;14.82;76.18;99519.31;5090976;28;20174;-45
2022/11/02 02:41:45;;;;;;;35.63;27.65;;;;;;;14.87;75.60;99517.66;5092453;28;20028;-46
2022/11/02 02:44:19;;;;;;;24.27;18.88;;;;;;;14.75;75.72;99516.69;5091314;28;20154;-46
2022/11/02 02:46:58;;;;;;;22.25;14.63;;;;;;;14.56;76.45;99511.22;5092655;28;20035;-46
2022/11/02 02:49:42;;;;;;;17.10;11.98;;;;;;;14.39;77.38;99510.81;5092517;28;20031;-46
2022/11/02 02:52:10;;;;;;;14.90;11.68;;;;;;;14.21;77.70;99515.09;5091330;28;20067;-46
2022/11/02 02:54:40;;;;;;;24.73;15.07;;;;;;;14.10;78.74;99519.13;5074178;28;20016;-46
2022/11/02 02:57:12;;;;;;;27.80;16.95;;;;;;;14.04;79.48;99515.47;5092288;28;20021;-46
2022/11/02 02:59:42;;;;;;;26.52;17.60;;;;;;;14.18;80.30;99513.66;5092262;28;20076;-46
2022/11/02 03:02:27;;;;;;;27.95;19.02;;;;;;;14.35;80.63;99511.44;5092456;28;20032;-46
2022/11/02 03:04:52;;;;;;;37.72;25.90;;;;;;;14.52;80.97;99502.03;5092238;28;20035;-46
2022/11/02 03:07:23;;;;;;;40.05;26.42;;;;;;;15.01;81.60;99509.69;5092122;28;20036;-46
2022/11/02 03:10:11;;;;;;;43.72;31.45;;;;;;;15.42;79.86;99508.50;5092229;28;20095;-46
2022/11/02 03:13:13;;;;;;;20.02;10.25;;;;;;;15.67;77.87;99501.41;5092364;28;20063;-46
2022/11/02 03:15:42;;;;;;;26.75;14.93;;;;;;;15.84;76.80;99493.81;5092123;28;20058;-46
2022/11/02 03:18:13;;;;;;;36.50;28.80;;;;;;;16.13;77.07;99495.00;5091845;28;20064;-46
2022/11/02 03:20:54;;;;;;;36.50;24.35;;;;;;;16.47;76.75;99494.72;5091988;28;20030;-46
2022/11/02 03:23:32;;;;;;;41.22;23.48;;;;;;;16.79;76.68;99500.72;5092025;28;20063;-46
2022/11/02 03:26:10;;;;;;;19.08;13.38;;;;;;;16.77;74.43;99492.97;5091906;28;20105;-46
2022/11/02 03:29:07;;;;;;;41.13;30.08;;;;;;;16.54;74.09;99500.75;5091974;28;20023;-46
2022/11/02 03:31:53;;;;;;;62.90;49.70;;;;;;;16.69;74.85;99503.88;5091859;28;20020;-46
2022/11/02 03:34:25;;;;;;;32.20;24.85;;;;;;;16.88;72.77;99502.09;5091820;28;20055;-46
2022/11/02 03:37:01;;;;;;;13.25;7.90;;;;;;;16.83;70.42;99507.22;5092061;28;20038;-46
2022/11/02 03:39:41;;;;;;;21.50;11.82;;;;;;;16.60;69.54;99488.47;5090766;28;20054;-46
2022/11/02 03:42:12;;;;;;;17.50;9.27;;;;;;;16.38;69.08;99502.97;5091735;28;20024;-46
2022/11/02 03:44:39;;;;;;;53.47;40.03;;;;;;;16.35;70.04;99502.56;5090755;28;20043;-46
2022/11/02 03:47:10;;;;;;;23.52;15.38;;;;;;;16.49;70.89;99509.38;5091620;28;20093;-46
2022/11/02 03:49:39;;;;;;;18.92;10.18;;;;;;;16.57;69.52;99509.09;5091709;28;20505;-46
2022/11/02 03:52:09;;;;;;;25.65;16.92;;;;;;;16.49;69.10;99503.25;5093323;28;20024;-46
2022/11/02 03:54:57;;;;;;;27.67;19.60;;;;;;;16.34;68.93;99507.06;5095768;28;20103;-46
2022/11/02 03:57:35;;;;;;;15.27;5.85;;;;;;;16.17;68.88;99505.97;5094452;28;20110;-46
2022/11/02 04:00:17;;;;;;;12.20;3.80;;;;;;;16.06;68.96;99504.84;5095625;28;20027;-46
2022/11/02 04:02:47;;;;;;;17.42;3.70;;;;;;;16.06;68.77;99512.00;5095669;28;20024;-46
2022/11/02 04:05:12;;;;;;;11.63;4.03;;;;;;;16.06;69.17;99512.81;5094328;28;20413;-46
2022/11/02 04:10:26;;;;;;;14.18;5.85;;;;;;;16.09;68.95;99517.66;5095776;28;20129;-46
2022/11/02 04:15:35;;;;;;;16.33;4.35;;;;;;;15.43;68.76;99521.50;5095686;28;20463;-46
2022/11/02 04:20:49;;;;;;;14.38;5.40;;;;;;;15.13;70.99;99515.94;5095342;28;20035;-46
2022/11/02 04:26:00;;;;;;;12.15;4.03;;;;;;;15.24;70.65;99522.41;5095484;28;20089;-46
2022/11/02 04:28:26;;;;;;;7.85;2.63;;;;;;;15.15;70.63;99524.47;5095129;28;20040;-46
2022/11/02 04:30:52;;;;;;;8.98;3.15;;;;;;;14.93;70.67;99524.75;5093735;28;20505;-46
2022/11/02 04:33:33;;;;;;;25.45;4.40;;;;;;;14.83;71.46;99524.38;5095074;28;20027;-46
2022/11/02 04:36:04;;;;;;;41.67;7.47;;;;;;;14.86;71.79;99534.53;5094914;28;20039;-46
2022/11/02 04:38:39;;;;;;;44.33;6.22;;;;;;;15.01;71.89;99538.75;5094859;28;20016;-46
2022/11/02 04:43:55;;;;;;;12.25;4.15;;;;;;;14.68;71.74;99534.38;5095130;28;20066;-46
2022/11/02 04:46:22;;;;;;;9.95;3.97;;;;;;;14.33;72.72;99545.16;5093761;28;20113;-46
2022/11/02 04:48:48;;;;;;;11.68;4.78;;;;;;;14.15;73.74;99545.75;5093700;28;20537;-46
2022/11/02 04:51:15;;;;;;;15.80;7.93;;;;;;;14.25;74.74;99548.81;5093356;28;20115;-46
2022/11/02 04:53:40;;;;;;;17.25;5.82;;;;;;;14.62;74.48;99556.31;5093326;28;20024;-46
2022/11/02 04:56:07;;;;;;;75.78;11.70;;;;;;;14.84;73.81;99554.25;5094583;28;20020;-46
2022/11/02 04:58:33;;;;;;;51.72;8.18;;;;;;;14.89;72.91;99555.28;5093401;28;20024;-46
2022/11/02 05:01:04;;;;;;;52.22;8.10;;;;;;;14.82;72.57;99557.09;5094490;28;20063;-46
2022/11/02 05:03:30;;;;;;;40.00;5.65;;;;;;;14.71;72.57;99565.69;5093681;28;20035;-46
2022/11/02 05:05:56;;;;;;;60.67;6.85;;;;;;;14.67;72.67;99575.00;5093393;28;20525;-46
2022/11/02 05:08:22;;;;;;;37.10;5.65;;;;;;;14.58;72.46;99567.28;5093380;28;20101;-46
2022/11/02 05:10:47;;;;;;;34.03;8.73;;;;;;;14.34;72.07;99570.53;5093257;28;20020;-46
2022/11/02 05:13:13;;;;;;;27.63;8.55;;;;;;;14.06;72.20;99568.06;5094287;28;20032;-46
2022/11/02 05:15:39;;;;;;;40.92;7.55;;;;;;;13.72;73.28;99573.28;5094242;28;20405;-46
2022/11/02 05:18:05;;;;;;;34.50;6.10;;;;;;;13.50;74.48;99572.59;5092696;28;20520;-46
2022/11/02 05:20:30;;;;;;;23.83;5.22;;;;;;;13.52;75.08;99575.03;5094158;28;20027;-46
2022/11/02 05:22:56;;;;;;;8.18;3.67;;;;;;;13.66;75.75;99573.25;5093009;28;20028;-46
2022/11/02 05:25:21;;;;;;;17.65;3.90;;;;;;;13.68;75.20;99573.88;5092787;28;20062;-46
2022/11/02 05:27:47;;;;;;;9.68;4.10;;;;;;;13.59;74.88;99578.50;5092726;28;20073;-46
2022/11/02 05:30:13;;;;;;;11.02;2.88;;;;;;;13.50;75.23;99579.69;5092598;28;20521;-46
2022/11/02 05:32:39;;;;;;;17.63;3.08;;;;;;;13.63;75.46;99579.75;5093984;28;20026;-46
2022/11/02 05:35:05;;;;;;;9.95;2.90;;;;;;;13.83;74.78;99579.00;5075675;28;20392;-46
2022/11/02 05:37:30;;;;;;;10.70;2.88;;;;;;;13.86;73.89;99576.75;5093766;28;20024;-46
2022/11/02 05:39:57;;;;;;;20.77;3.25;;;;;;;13.62;73.89;99582.56;5092635;28;20055;-45
2022/11/02 05:42:24;;;;;;;8.02;2.83;;;;;;;13.67;74.39;99580.97;5093678;28;20024;-46
2022/11/02 05:44:50;;;;;;;22.25;4.80;;;;;;;13.76;74.88;99579.78;5092432;28;20062;-46
2022/11/02 05:47:16;;;;;;;31.33;10.13;;;;;;;14.05;74.81;99580.47;5092613;28;20024;-46
2022/11/02 05:49:41;;;;;;;26.23;5.57;;;;;;;14.16;73.63;99579.84;5093589;28;20069;-46
2022/11/02 05:52:07;;;;;;;37.00;5.95;;;;;;;14.08;73.61;99580.03;5092451;28;20401;-46
2022/11/02 05:54:33;;;;;;;31.80;5.18;;;;;;;14.15;74.30;99580.06;5092294;28;20500;-46
2022/11/02 05:56:58;;;;;;;44.40;16.50;;;;;;;14.24;73.61;99585.97;5093413;28;20028;-46
2022/11/02 05:59:24;;;;;;;33.20;5.57;;;;;;;14.19;73.49;99592.66;5093367;28;20034;-46
2022/11/02 06:01:50;;;;;;;36.40;4.63;;;;;;;14.14;73.32;99589.78;5093328;28;20055;-46
2022/11/02 06:04:15;;;;;;;41.90;5.15;;;;;;;13.93;73.64;99596.06;5093406;28;20024;-46
2022/11/02 06:06:42;;;;;;;25.65;4.47;;;;;;;13.84;74.33;99597.25;5093230;28;20024;-46
2022/11/02 06:09:07;;;;;;;26.48;4.65;;;;;;;13.86;74.86;99591.78;5092217;28;20020;-46
2022/11/02 06:11:33;;;;;;;26.75;4.72;;;;;;;13.96;74.75;99597.47;5075321;28;20028;-46
2022/11/02 06:13:59;;;;;;;18.00;3.72;;;;;;;14.03;73.89;99602.78;5092030;28;20072;-46
2022/11/02 06:16:24;;;;;;;15.52;4.18;;;;;;;13.89;73.71;99607.22;5093033;28;20089;-46
2022/11/02 06:18:50;;;;;;;11.55;4.78;;;;;;;13.77;74.30;99601.72;5092753;28;20498;-46
2022/11/02 06:21:16;;;;;;;107.70;6.60;;;;;;;13.77;74.23;99601.72;5093021;28;20027;-46
2022/11/02 06:23:42;;;;;;;14.75;5.72;;;;;;;13.61;74.17;99604.69;5091914;28;20032;-46
2022/11/02 06:26:09;;;;;;;58.38;50.10;;;;;;;13.46;74.67;99604.81;5092859;28;20186;-46
2022/11/02 06:28:35;;;;;;;49.88;45.05;;;;;;;13.48;74.96;99613.34;5091840;28;20482;-46
2022/11/02 06:31:00;;;;;;;36.30;31.52;;;;;;;13.48;75.10;99613.34;5092737;28;20107;-46
2022/11/02 06:33:26;;;;;;;27.80;4.65;;;;;;;13.66;75.21;99616.28;5092680;28;20024;-46
2022/11/02 06:35:53;;;;;;;61.83;5.95;;;;;;;13.59;74.57;99623.34;5092607;28;20027;-46
2022/11/02 06:38:19;;;;;;;24.60;7.30;;;;;;;13.55;75.05;99619.47;5092598;28;20024;-46
2022/11/02 06:41:03;;;;;;;12.57;5.57;;;;;;;13.68;75.01;99622.19;5092620;28;20062;-46
2022/11/02 06:43:28;;;;;;;54.15;5.70;;;;;;;13.86;74.53;99626.88;5092662;28;20071;-46
2022/11/02 06:45:58;;;;;;;284.63;256.75;;;;;;;14.01;74.08;99632.03;5091132;28;20103;-46
2022/11/02 06:48:25;;;;;;;54.78;25.05;;;;;;;14.17;73.59;99631.66;5092479;28;20020;-46
2022/11/02 06:50:51;;;;;;;43.70;38.85;;;;;;;14.22;73.21;99630.22;5092426;28;20065;-46
2022/11/02 06:53:17;;;;;;;48.47;8.80;;;;;;;14.27;72.79;99633.91;5092367;28;20432;-46
2022/11/02 06:55:43;;;;;;;35.97;8.93;;;;;;;14.33;73.00;99637.56;5092262;28;20047;-46
2022/11/02 06:58:09;;;;;;;22.35;7.50;;;;;;;14.47;72.87;99631.28;5091221;28;20032;-46
2022/11/02 07:00:34;;;;;;;23.90;7.30;;;;;;;14.73;72.74;99637.63;5092289;28;20111;-46
2022/11/02 07:03:02;;;;;;;60.33;7.55;;;;;;;14.92;71.66;99646.53;5092279;28;20027;-46
2022/11/02 07:05:28;;;;;;;32.00;6.57;;;;;;;14.94;71.60;99650.59;5091185;28;20031;-46
2022/11/02 07:07:55;;;;;;;33.20;7.90;;;;;;;15.06;71.21;99652.63;5092176;28;20028;-46
2022/11/02 07:10:21;;;;;;;39.80;7.03;;;;;;;15.18;70.93;99653.63;5091127;28;20548;-46
2022/11/02 07:12:47;;;;;;;22.85;7.35;;;;;;;15.31;70.46;99650.97;5091041;28;20027;-46
2022/11/02 07:15:12;;;;;;;68.72;61.65;;;;;;;15.58;70.17;99650.88;5092018;28;20031;-46
2022/11/02 07:17:39;;;;;;;34.42;15.77;;;;;;;15.75;69.57;99652.06;5091788;28;20036;-46
2022/11/02 07:20:09;;;;;;;37.10;16.88;;;;;;;15.85;69.00;99651.59;5091924;28;20030;-46
2022/11/02 07:22:35;;;;;;;31.40;10.73;;;;;;;16.01;68.72;99647.66;5092312;28;20024;-46
2022/11/02 07:25:01;;;;;;;46.50;10.35;;;;;;;16.08;68.33;99648.44;5090748;28;20032;-46
2022/11/02 07:27:27;;;;;;;40.00;7.47;;;;;;;16.10;67.64;99648.25;5091623;28;20121;-46
2022/11/02 07:29:52;;;;;;;27.15;9.27;;;;;;;16.08;67.86;99652.94;5074078;28;20039;-46
2022/11/02 07:32:18;;;;;;;57.63;51.72;;;;;;;16.09;67.31;99650.06;5091816;28;20024;-46
2022/11/02 07:34:44;;;;;;;43.45;39.20;;;;;;;16.20;67.33;99659.19;5090823;28;20134;-46
2022/11/02 07:37:09;;;;;;;14.05;8.82;;;;;;;16.55;66.68;99661.38;5092086;28;20035;-46
2022/11/02 07:39:35;;;;;;;78.22;20.27;;;;;;;16.90;65.52;99663.56;5091799;28;20027;-46
2022/11/02 07:42:01;;;;;;;46.92;17.23;;;;;;;17.27;64.68;99655.69;5091815;28;20073;-46
2022/11/02 07:44:28;;;;;;;46.35;36.65;;;;;;;17.44;63.72;99650.59;5091770;28;20028;-46
2022/11/02 07:46:54;;;;;;;19.55;11.50;;;;;;;17.71;62.69;99651.91;5091672;28;20017;-46
2022/11/02 07:49:19;;;;;;;23.95;15.95;;;;;;;18.09;61.62;99650.84;5090786;28;20059;-46
2022/11/02 07:51:45;;;;;;;29.50;11.15;;;;;;;18.28;60.87;99648.13;5091666;28;20465;-46
2022/11/02 07:54:10;;;;;;;62.80;45.30;;;;;;;18.16;60.69;99650.75;5091695;28;20141;-44
2022/11/02 07:56:36;;;;;;;26.75;12.55;;;;;;;18.01;60.96;99648.50;5091671;28;20016;-44
2022/11/02 07:59:02;;;;;;;17.17;8.63;;;;;;;17.94;61.26;99648.59;5091574;28;20047;-44
2022/11/02 08:01:28;;;;;;;26.08;9.52;;;;;;;18.23;60.59;99653.31;5091609;28;20028;-44
2022/11/02 08:03:55;;;;;;;30.98;7.35;;;;;;;18.36;60.21;99643.28;5090286;28;20517;-43
2022/11/02 08:06:20;;;;;;;15.55;6.15;;;;;;;18.38;59.53;99645.72;5091546;28;20027;-44
2022/11/02 08:08:46;;;;;;;23.83;9.30;;;;;;;18.53;59.46;99643.47;5091832;28;20024;-43
2022/11/02 08:11:12;;;;;;;22.55;10.63;;;;;;;18.69;58.65;99655.28;5091551;28;20024;-43
2022/11/02 08:13:37;;;;;;;28.13;19.17;;;;;;;18.55;58.99;99657.34;5091450;28;20486;-44
2022/11/02 08:16:03;;;;;;;37.22;23.17;;;;;;;18.68;59.07;99650.97;5091337;28;20027;-44
2022/11/02 08:18:29;;;;;;;17.15;11.73;;;;;;;19.00;58.52;99645.38;5089947;28;20040;-44
2022/11/02 08:20:56;;;;;;;18.67;6.47;;;;;;;19.37;57.47;99642.44;5090050;28;20114;-44
2022/11/02 08:23:23;;;;;;;15.30;7.15;;;;;;;19.52;56.50;99642.75;5091436;28;20024;-44
2022/11/02 08:25:50;;;;;;;12.77;6.57;;;;;;;19.63;56.18;99651.75;5090170;28;20107;-44
2022/11/02 08:28:26;;;;;;;21.45;7.85;;;;;;;19.48;56.66;99654.13;5091389;28;20024;-44
2022/11/02 08:30:53;;;;;;;15.05;6.85;;;;;;;19.38;57.00;99651.22;5091376;28;20062;-44
2022/11/02 08:33:19;;;;;;;17.05;8.57;;;;;;;19.44;56.93;99655.63;5091274;28;20035;-44
2022/11/02 08:35:47;;;;;;;16.27;9.65;;;;;;;19.48;56.80;99648.78;5091325;28;20382;-44
2022/11/02 08:38:13;;;;;;;29.02;15.07;;;;;;;19.53;56.83;99652.34;5091538;28;20020;-44
2022/11/02 08:40:39;;;;;;;23.92;15.27;;;;;;;19.44;56.76;99651.09;5093912;28;20028;-44
2022/11/02 08:43:08;;;;;;;31.83;17.00;;;;;;;19.14;57.18;99661.91;5093895;28;20067;-44
2022/11/02 08:45:37;;;;;;;45.70;19.75;;;;;;;18.74;57.83;99662.56;5094832;28;20040;-44
2022/11/02 08:48:04;;;;;;;21.08;12.77;;;;;;;18.52;58.75;99659.63;5095059;28;20107;-44
2022/11/02 08:50:30;;;;;;;22.88;14.50;;;;;;;18.34;59.23;99657.84;5093415;28;20028;-44
2022/11/02 08:52:55;;;;;;;34.60;15.80;;;;;;;18.22;59.63;99660.47;5094672;28;20531;-43
2022/11/02 08:55:21;;;;;;;23.35;17.55;;;;;;;18.13;59.96;99662.66;5093304;28;20020;-44
2022/11/02 08:57:49;;;;;;;51.95;43.47;;;;;;;18.13;60.74;99656.53;5094527;28;20504;-44
2022/11/02 09:00:17;;;;;;;23.83;10.88;;;;;;;18.29;60.72;99655.06;5094440;28;20060;-44
2022/11/02 09:02:42;;;;;;;40.65;10.48;;;;;;;18.49;59.92;99650.28;5094499;28;20028;-43
2022/11/02 09:05:09;;;;;;;42.78;9.60;;;;;;;18.51;59.64;99645.53;5093393;28;20076;-43
2022/11/02 09:07:35;;;;;;;34.53;8.15;;;;;;;18.80;59.76;99640.38;5094462;28;20135;-43
2022/11/02 09:10:02;;;;;;;23.20;7.40;;;;;;;18.98;58.93;99636.81;5094402;28;20062;-43
2022/11/02 09:12:27;;;;;;;26.65;8.40;;;;;;;19.22;58.38;99634.94;5094323;28;20051;-44
2022/11/02 09:14:53;;;;;;;29.23;6.55;;;;;;;19.60;57.71;99630.94;5094323;28;20478;-44
2022/11/02 09:17:19;;;;;;;14.15;6.93;;;;;;;20.28;55.85;99625.78;5094004;28;20044;-44
2022/11/02 09:19:45;;;;;;;15.73;6.03;;;;;;;21.20;54.13;99621.06;5094096;28;20032;-44
2022/11/02 09:22:10;;;;;;;15.30;6.57;;;;;;;21.79;51.70;99626.59;5092916;28;20043;-44
2022/11/02 09:24:36;;;;;;;21.83;8.43;;;;;;;22.18;50.62;99621.09;5093060;28;20024;-44
2022/11/02 09:27:02;;;;;;;17.85;6.28;;;;;;;22.68;50.13;99619.13;5092780;28;20108;-44
2022/11/02 09:29:27;;;;;;;15.43;6.18;;;;;;;23.33;48.41;99611.75;5094016;28;20028;-44
2022/11/02 09:31:53;;;;;;;16.88;7.38;;;;;;;23.81;47.14;99607.13;5094196;28;20437;-44
2022/11/02 09:34:19;;;;;;;12.88;5.07;;;;;;;24.41;45.94;99612.81;5092639;28;20028;-45
2022/11/02 09:36:45;;;;;;;9.98;4.28;;;;;;;24.95;44.62;99606.06;5093889;28;20206;-45
2022/11/02 09:39:10;;;;;;;6.88;4.65;;;;;;;25.28;43.75;99601.91;5094072;28;20028;-45
2022/11/02 09:41:43;;;;;;;12.98;4.78;;;;;;;25.41;43.05;99595.13;5093811;28;20517;-45
2022/11/02 09:44:26;;;;;;;8.82;4.75;;;;;;;25.21;43.27;99590.69;5093793;28;20086;-45
2022/11/02 09:46:53;;;;;;;11.15;5.25;;;;;;;24.72;43.78;99596.69;5093732;28;20035;-44
2022/11/02 09:49:22;;;;;;;12.77;5.53;;;;;;;24.48;44.22;99597.22;5093365;28;20036;-44
2022/11/02 09:51:51;;;;;;;12.02;5.10;;;;;;;24.39;44.19;99588.13;5092236;28;20027;-45
2022/11/02 09:54:30;;;;;;;11.75;4.63;;;;;;;24.36;44.13;99585.16;5092204;28;20034;-45
2022/11/02 09:57:20;;;;;;;14.25;5.72;;;;;;;24.07;44.92;99585.69;5092193;28;20043;-44
2022/11/02 09:59:46;;;;;;;11.45;5.50;;;;;;;23.84;45.20;99584.31;5093403;28;20034;-44
2022/11/02 10:02:40;;;;;;;16.38;5.32;;;;;;;23.77;45.74;99592.63;5093363;28;20024;-44
2022/11/02 10:05:17;;;;;;;12.43;5.53;;;;;;;23.88;45.19;99591.56;5093288;28;20024;-45
2022/11/02 10:08:01;;;;;;;11.82;4.28;;;;;;;24.43;44.32;99583.81;5091998;28;20029;-45
2022/11/02 10:10:38;;;;;;;9.95;4.78;;;;;;;25.04;43.37;99585.59;5093253;28;20047;-44
2022/11/02 10:13:16;;;;;;;17.83;6.50;;;;;;;25.39;42.45;99583.88;5093207;28;20573;-45
2022/11/02 10:15:51;;;;;;;14.45;4.88;;;;;;;25.60;42.72;99587.25;5093104;28;20140;-45
2022/11/02 10:18:22;;;;;;;;;;;;;;;26.61;42.70;99577.94;5093264;28;20048;-45
2022/11/02 10:20:52;;;;;;;14.27;4.53;;;;;;;27.32;39.74;99572.84;5092967;28;19965;-45
2022/11/02 10:23:32;;;;;;;26.92;4.53;;;;;;;27.77;38.63;99563.31;5091699;28;20574;-45
2022/11/02 10:26:01;;;;;;;44.13;6.05;;;;;;;27.75;37.62;99557.41;5091637;28;20047;-45
2022/11/02 10:28:33;;;;;;;15.85;4.65;;;;;;;27.88;37.29;99555.88;5093097;28;20397;-44
2022/11/02 10:31:01;;;;;;;71.97;8.50;;;;;;;27.86;37.34;99561.53;5091513;28;20065;-45
2022/11/02 10:33:29;;;;;;;35.60;6.00;;;;;;;27.98;36.81;99555.72;5091390;28;20012;-45
2022/11/02 10:35:55;;;;;;;33.72;5.65;;;;;;;28.14;36.99;99556.28;5092766;28;20061;-45
2022/11/02 10:38:35;;;;;;;35.40;6.00;;;;;;;28.01;37.29;99549.75;5092600;28;20024;-45
2022/11/02 10:41:13;;;;;;;30.35;4.78;;;;;;;28.00;37.45;99555.44;5092604;28;20061;-45
2022/11/02 10:43:57;;;;;;;24.10;5.10;;;;;;;27.94;37.19;99551.22;5092684;28;20046;-45
2022/11/02 10:46:41;;;;;;;28.63;5.70;;;;;;;27.72;37.49;99554.50;5092877;28;20035;-45
2022/11/02 10:49:28;;;;;;;29.75;5.85;;;;;;;28.13;37.54;99535.78;5092550;28;20020;-45
2022/11/02 10:51:54;;;;;;;14.50;3.97;;;;;;;28.60;36.18;99528.47;5092488;28;20020;-45
2022/11/02 10:54:20;;;;;;;18.40;4.10;;;;;;;28.76;35.77;99525.50;5092457;28;20053;-45
2022/11/02 10:56:46;;;;;;;26.52;4.28;;;;;;;29.07;35.35;99525.66;5090995;28;20036;-45
2022/11/02 10:59:12;;;;;;;19.98;4.05;;;;;;;29.67;34.45;99524.63;5092208;28;20095;-45
2022/11/02 11:02:02;;;;;;;6.47;3.05;;;;;;;30.11;33.29;99520.34;5090564;28;20114;-45
2022/11/02 11:04:32;;;;;;;16.45;4.65;;;;;;;29.77;33.66;99518.22;5091189;28;20375;-45
2022/11/02 11:07:15;;;;;;;17.80;4.13;;;;;;;29.40;34.30;99514.69;5091099;28;20508;-45
2022/11/02 11:09:56;;;;;;;11.73;3.53;;;;;;;29.43;34.23;99511.38;5092238;28;20027;-45
2022/11/02 11:12:37;;;;;;;14.75;3.28;;;;;;;29.74;33.74;99514.22;5092109;28;20032;-45
2022/11/02 11:15:05;;;;;;;18.20;3.50;;;;;;;29.73;32.77;99514.53;5092131;28;20027;-45
2022/11/02 11:17:35;;;;;;;10.75;3.30;;;;;;;28.70;34.33;99515.91;5091741;28;20040;-45
2022/11/02 11:20:06;;;;;;;14.00;2.97;;;;;;;28.57;34.42;99499.34;5092262;28;20456;-45
2022/11/02 11:22:35;;;;;;;11.13;2.80;;;;;;;28.75;34.24;99489.56;5090694;28;20024;-45
2022/11/02 11:25:21;;;;;;;11.65;2.60;;;;;;;29.01;34.31;99484.41;5092001;28;20091;-45
2022/11/02 11:27:50;;;;;;;6.55;2.50;;;;;;;29.32;33.62;99494.59;5091926;28;20117;-45
2022/11/02 11:30:28;;;;;;;6.15;2.88;;;;;;;29.30;33.66;99490.59;5091956;28;20035;-45
2022/11/02 11:32:56;;;;;;;7.10;2.97;;;;;;;29.31;33.08;99489.50;5092036;28;20028;-45
2022/11/02 11:35:26;;;;;;;5.57;2.90;;;;;;;29.07;33.25;99477.00;5090599;28;20020;-45
2022/11/02 11:37:55;;;;;;;10.52;2.63;;;;;;;28.92;33.15;99475.44;5092166;28;20028;-45
2022/11/02 11:40:22;;;;;;;11.98;2.90;;;;;;;29.07;33.11;99468.91;5090433;28;20466;-45
2022/11/02 11:42:54;;;;;;;7.93;2.55;;;;;;;29.28;32.35;99475.47;5091872;28;20141;-45
2022/11/02 11:45:25;;;;;;;12.10;2.55;;;;;;;29.48;32.33;99462.59;5092059;28;20032;-45
2022/11/02 11:48:16;;;;;;;8.55;1.67;;;;;;;29.49;32.29;99458.78;5092161;28;20051;-45
2022/11/02 11:50:49;;;;;;;6.90;2.15;;;;;;;29.35;31.98;99455.34;5091750;28;20024;-45